createdAt,value
2019-01-05T00:00:00.706Z,1020.61
2019-01-05T00:00:59.278Z,1020.67
2019-01-05T00:01:58.483Z,1020.6
2019-01-05T00:02:57.154Z,1020.62
2019-01-05T00:03:55.702Z,1020.65
2019-01-05T00:04:54.270Z,1020.69
2019-01-05T00:05:52.705Z,1020.67
2019-01-05T00:06:51.239Z,1020.64
2019-01-05T00:07:49.800Z,1020.61
2019-01-05T00:08:48.351Z,1020.63
2019-01-05T00:09:46.940Z,1020.64
2019-01-05T00:10:46.316Z,1020.66
2019-01-05T00:11:44.849Z,1020.63
2019-01-05T00:12:43.432Z,1020.61
2019-01-05T00:13:41.946Z,1020.64
2019-01-05T00:14:40.485Z,1020.6
2019-01-05T00:15:39.144Z,1020.54
2019-01-05T00:16:37.684Z,1020.54
2019-01-05T00:17:36.342Z,1020.49
2019-01-05T00:18:34.949Z,1020.49
2019-01-05T00:19:33.568Z,1020.5
2019-01-05T00:20:32.089Z,1020.55
2019-01-05T00:21:31.094Z,1020.52
2019-01-05T00:22:29.671Z,1020.51
2019-01-05T00:23:28.300Z,1020.46
2019-01-05T00:24:26.981Z,1020.46
2019-01-05T00:25:25.593Z,1020.41
2019-01-05T00:26:24.252Z,1020.46
2019-01-05T00:27:23.004Z,1020.43
2019-01-05T00:28:21.532Z,1020.46
2019-01-05T00:29:20.092Z,1020.46
2019-01-05T00:30:18.721Z,1020.46
2019-01-05T00:31:17.437Z,1020.41
2019-01-05T00:32:15.989Z,1020.42
2019-01-05T00:33:14.716Z,1020.4
2019-01-05T00:34:13.442Z,1020.4
2019-01-05T00:35:12.009Z,1020.37
2019-01-05T00:36:10.679Z,1020.36
2019-01-05T00:37:09.218Z,1020.37
2019-01-05T00:38:07.744Z,1020.35
2019-01-05T00:39:06.280Z,1020.35
2019-01-05T00:40:04.820Z,1020.37
2019-01-05T00:41:03.337Z,1020.37
2019-01-05T00:42:01.871Z,1020.39
2019-01-05T00:43:00.466Z,1020.44
2019-01-05T00:43:59.158Z,1020.51
2019-01-05T00:44:57.926Z,1020.47
2019-01-05T00:45:56.306Z,1020.49
2019-01-05T00:46:55.103Z,1020.47
2019-01-05T00:47:53.613Z,1020.54
2019-01-05T00:48:52.300Z,1020.51
2019-01-05T00:49:50.884Z,1020.5
2019-01-05T00:50:49.420Z,1020.49
2019-01-05T00:51:47.942Z,1020.56
2019-01-05T00:52:46.483Z,1020.52
2019-01-05T00:53:45.103Z,1020.52
2019-01-05T00:54:43.656Z,1020.52
2019-01-05T00:55:42.174Z,1020.49
2019-01-05T00:56:41.046Z,1020.53
2019-01-05T00:57:39.589Z,1020.52
2019-01-05T00:58:38.131Z,1020.51
2019-01-05T00:59:36.961Z,1020.54
2019-01-05T01:00:35.747Z,1020.53
2019-01-05T01:01:34.296Z,1020.53
2019-01-05T01:02:33.086Z,1020.55
2019-01-05T01:03:31.641Z,1020.54
2019-01-05T01:04:30.165Z,1020.57
2019-01-05T01:05:29.196Z,1020.59
2019-01-05T01:06:27.731Z,1020.64
2019-01-05T01:07:26.241Z,1020.6
2019-01-05T01:08:24.803Z,1020.56
2019-01-05T01:09:23.318Z,1020.55
2019-01-05T01:10:21.893Z,1020.56
2019-01-05T01:11:20.755Z,1020.48
2019-01-05T01:12:19.537Z,1020.53
2019-01-05T01:13:18.096Z,1020.51
2019-01-05T01:14:16.918Z,1020.56
2019-01-05T01:15:15.461Z,1020.5
2019-01-05T01:16:14.070Z,1020.56
2019-01-05T01:17:12.796Z,1020.57
2019-01-05T01:18:11.471Z,1020.53
2019-01-05T01:19:10.022Z,1020.49
2019-01-05T01:20:08.777Z,1020.48
2019-01-05T01:21:07.315Z,1020.47
2019-01-05T01:22:05.836Z,1020.48
2019-01-05T01:23:04.396Z,1020.42
2019-01-05T01:24:03.058Z,1020.39
2019-01-05T01:25:01.688Z,1020.46
2019-01-05T01:26:00.375Z,1020.48
2019-01-05T01:26:59.053Z,1020.48
2019-01-05T01:27:57.643Z,1020.5
2019-01-05T01:28:56.159Z,1020.52
2019-01-05T01:29:54.990Z,1020.57
2019-01-05T01:30:53.532Z,1020.56
2019-01-05T01:31:53.027Z,1020.59
2019-01-05T01:34:37.315Z,1020.57
2019-01-05T01:35:35.827Z,1020.54
2019-01-05T01:36:34.488Z,1020.6
2019-01-05T01:37:33.238Z,1020.54
2019-01-05T01:38:31.817Z,1020.59
2019-01-05T01:39:30.527Z,1020.59
2019-01-05T01:40:29.050Z,1020.56
2019-01-05T01:41:27.589Z,1020.55
2019-01-05T01:42:26.126Z,1020.55
2019-01-05T01:43:24.750Z,1020.59
2019-01-05T01:44:23.385Z,1020.56
2019-01-05T01:45:21.915Z,1020.52
2019-01-05T01:46:20.611Z,1020.55
2019-01-05T01:47:19.346Z,1020.54
2019-01-05T01:48:17.891Z,1020.54
2019-01-05T01:49:16.562Z,1020.52
2019-01-05T01:50:15.114Z,1020.53
2019-01-05T01:51:13.663Z,1020.53
2019-01-05T01:52:12.226Z,1020.5
2019-01-05T01:53:10.733Z,1020.49
2019-01-05T01:54:09.263Z,1020.49
2019-01-05T01:55:07.787Z,1020.51
2019-01-05T01:56:06.469Z,1020.49
2019-01-05T01:57:05.280Z,1020.51
2019-01-05T01:58:03.839Z,1020.53
2019-01-05T01:59:02.723Z,1020.58
2019-01-05T02:00:01.261Z,1020.61
2019-01-05T02:00:59.786Z,1020.55
2019-01-05T02:01:58.399Z,1020.6
2019-01-05T02:02:56.972Z,1020.6
2019-01-05T02:03:55.521Z,1020.56
2019-01-05T02:04:54.051Z,1020.53
2019-01-05T02:05:52.762Z,1020.51
2019-01-05T02:06:51.325Z,1020.57
2019-01-05T02:07:49.856Z,1020.56
2019-01-05T02:08:48.483Z,1020.53
2019-01-05T02:09:47.276Z,1020.49
2019-01-05T02:10:45.825Z,1020.46
2019-01-05T02:11:44.642Z,1020.46
2019-01-05T02:12:43.285Z,1020.47
2019-01-05T02:13:41.805Z,1020.4
2019-01-05T02:14:40.506Z,1020.38
2019-01-05T02:15:39.322Z,1020.32
2019-01-05T02:16:37.893Z,1020.27
2019-01-05T02:17:36.538Z,1020.35
2019-01-05T02:18:35.103Z,1020.33
2019-01-05T02:19:33.654Z,1020.3
2019-01-05T02:20:32.181Z,1020.33
2019-01-05T02:21:30.729Z,1020.36
2019-01-05T02:22:29.303Z,1020.38
2019-01-05T02:23:27.925Z,1020.33
2019-01-05T02:24:26.586Z,1020.39
2019-01-05T02:25:25.213Z,1020.38
2019-01-05T02:26:23.755Z,1020.34
2019-01-05T02:27:22.280Z,1020.32
2019-01-05T02:28:21.054Z,1020.31
2019-01-05T02:29:19.570Z,1020.29
2019-01-05T02:30:18.241Z,1020.31
2019-01-05T02:31:16.795Z,1020.29
2019-01-05T02:32:15.326Z,1020.27
2019-01-05T02:33:13.878Z,1020.26
2019-01-05T02:34:12.420Z,1020.25
2019-01-05T02:35:11.266Z,1020.24
2019-01-05T02:36:09.808Z,1020.31
2019-01-05T02:37:08.457Z,1020.26
2019-01-05T02:38:07.216Z,1020.42
2019-01-05T02:39:05.753Z,1020.32
2019-01-05T02:40:04.418Z,1020.38
2019-01-05T02:41:03.085Z,1020.35
2019-01-05T02:42:01.632Z,1020.38
2019-01-05T02:43:00.271Z,1020.35
2019-01-05T02:43:59.043Z,1020.37
2019-01-05T02:44:57.592Z,1020.37
2019-01-05T02:45:56.123Z,1020.34
2019-01-05T02:46:54.996Z,1020.3
2019-01-05T02:47:53.543Z,1020.3
2019-01-05T02:48:52.132Z,1020.31
2019-01-05T02:49:50.637Z,1020.19
2019-01-05T02:50:49.219Z,1020.17
2019-01-05T02:51:47.761Z,1020.15
2019-01-05T02:52:46.318Z,1020.12
2019-01-05T02:53:45.161Z,1020.14
2019-01-05T02:54:43.798Z,1020.13
2019-01-05T02:55:42.447Z,1020.13
2019-01-05T02:56:41.124Z,1020.05
2019-01-05T02:57:39.666Z,1020.14
2019-01-05T02:58:38.207Z,1020.07
2019-01-05T02:59:36.757Z,1019.95
2019-01-05T03:00:35.280Z,1020.05
2019-01-05T03:01:33.833Z,1020
2019-01-05T03:02:32.362Z,1019.95
2019-01-05T03:03:30.901Z,1019.91
2019-01-05T03:04:29.448Z,1019.85
2019-01-05T03:05:28.051Z,1019.78
2019-01-05T03:06:26.929Z,1019.73
2019-01-05T03:07:25.583Z,1019.67
2019-01-05T03:08:24.137Z,1019.6
2019-01-05T03:09:22.884Z,1019.56
2019-01-05T03:10:21.454Z,1019.47
2019-01-05T03:11:20.007Z,1019.43
2019-01-05T03:12:18.556Z,1019.45
2019-01-05T03:13:17.125Z,1019.47
2019-01-05T03:14:15.657Z,1019.45
2019-01-05T03:15:14.189Z,1019.52
2019-01-05T03:16:13.076Z,1019.53
2019-01-05T03:17:11.648Z,1019.44
2019-01-05T03:18:10.255Z,1019.47
2019-01-05T03:19:09.064Z,1019.48
2019-01-05T03:20:07.597Z,1019.43
2019-01-05T03:21:06.130Z,1019.49
2019-01-05T03:22:04.690Z,1019.47
2019-01-05T03:23:03.181Z,1019.45
2019-01-05T03:24:01.753Z,1019.45
2019-01-05T03:25:00.302Z,1019.44
2019-01-05T03:25:58.905Z,1019.44
2019-01-05T03:26:57.443Z,1019.36
2019-01-05T03:27:55.967Z,1019.45
2019-01-05T03:28:54.702Z,1019.43
2019-01-05T03:29:53.413Z,1019.43
2019-01-05T03:30:52.035Z,1019.4
2019-01-05T03:31:50.747Z,1019.34
2019-01-05T03:32:49.283Z,1019.31
2019-01-05T03:33:47.843Z,1019.36
2019-01-05T03:34:46.374Z,1019.34
2019-01-05T03:35:44.918Z,1019.33
2019-01-05T03:36:43.468Z,1019.27
2019-01-05T03:37:42.022Z,1019.28
2019-01-05T03:38:40.848Z,1019.23
2019-01-05T03:39:39.513Z,1019.24
2019-01-05T03:40:38.043Z,1019.22
2019-01-05T03:41:36.920Z,1019.15
2019-01-05T03:42:35.445Z,1019.11
2019-01-05T03:43:33.980Z,1019.09
2019-01-05T03:44:32.558Z,1019.1
2019-01-05T03:45:31.125Z,1019.08
2019-01-05T03:46:29.658Z,1019
2019-01-05T03:47:28.227Z,1019.06
2019-01-05T03:48:27.093Z,1018.93
2019-01-05T03:49:25.653Z,1019.04
2019-01-05T03:50:24.238Z,1019.02
2019-01-05T03:51:23.101Z,1018.98
2019-01-05T03:52:21.646Z,1019.06
2019-01-05T03:53:20.196Z,1019.07
2019-01-05T03:54:18.734Z,1018.97
2019-01-05T03:55:17.926Z,1019.1
2019-01-05T03:56:16.656Z,1019.03
2019-01-05T03:57:15.180Z,1019
2019-01-05T03:58:13.729Z,1019.03
2019-01-05T03:59:12.274Z,1019.06
2019-01-05T04:00:10.809Z,1019.06
2019-01-05T04:01:09.358Z,1019.11
2019-01-05T04:02:08.860Z,1019.08
2019-01-05T04:03:07.378Z,1019.02
2019-01-05T04:04:05.903Z,1019.04
2019-01-05T04:05:04.499Z,1018.94
2019-01-05T04:06:03.173Z,1018.9
2019-01-05T04:07:01.716Z,1018.85
2019-01-05T04:08:00.297Z,1018.86
2019-01-05T04:10:40.978Z,1018.94
2019-01-05T04:11:39.521Z,1018.89
2019-01-05T04:12:38.055Z,1018.98
2019-01-05T04:13:36.870Z,1018.96
2019-01-05T04:14:35.532Z,1018.97
2019-01-05T04:15:34.202Z,1019.02
2019-01-05T04:16:32.859Z,1019
2019-01-05T04:17:31.431Z,1019
2019-01-05T04:18:29.936Z,1018.98
2019-01-05T04:19:28.493Z,1018.98
2019-01-05T04:20:27.041Z,1018.99
2019-01-05T04:21:25.560Z,1018.96
2019-01-05T04:22:24.099Z,1018.94
2019-01-05T04:23:22.938Z,1018.93
2019-01-05T04:24:21.533Z,1018.87
2019-01-05T04:25:20.077Z,1018.84
2019-01-05T04:26:18.969Z,1018.85
2019-01-05T04:27:17.513Z,1018.85
2019-01-05T04:28:16.025Z,1018.83
2019-01-05T04:29:14.593Z,1018.74
2019-01-05T04:30:13.163Z,1018.81
2019-01-05T04:31:11.705Z,1018.87
2019-01-05T04:32:10.243Z,1018.8
2019-01-05T04:33:08.870Z,1018.87
2019-01-05T04:34:07.440Z,1018.81
2019-01-05T04:35:05.971Z,1018.77
2019-01-05T04:36:04.599Z,1018.8
2019-01-05T04:37:03.219Z,1018.78
2019-01-05T04:38:01.785Z,1018.82
2019-01-05T04:39:00.450Z,1018.83
2019-01-05T04:39:59.174Z,1018.87
2019-01-05T04:40:57.813Z,1018.78
2019-01-05T04:41:56.383Z,1018.81
2019-01-05T04:42:54.930Z,1018.77
2019-01-05T04:43:53.452Z,1018.75
2019-01-05T04:44:51.988Z,1018.83
2019-01-05T04:45:50.922Z,1018.78
2019-01-05T04:46:49.559Z,1018.79
2019-01-05T04:47:48.143Z,1018.76
2019-01-05T04:48:46.846Z,1018.8
2019-01-05T04:49:45.390Z,1018.78
2019-01-05T04:50:43.951Z,1018.7
2019-01-05T04:51:42.496Z,1018.75
2019-01-05T04:52:41.317Z,1018.72
2019-01-05T04:53:39.849Z,1018.65
2019-01-05T04:54:38.502Z,1018.67
2019-01-05T04:55:37.227Z,1018.68
2019-01-05T04:56:35.793Z,1018.64
2019-01-05T04:57:34.519Z,1018.63
2019-01-05T04:58:33.063Z,1018.63
2019-01-05T04:59:31.623Z,1018.66
2019-01-05T05:00:30.183Z,1018.56
2019-01-05T05:01:28.734Z,1018.57
2019-01-05T05:02:27.237Z,1018.63
2019-01-05T05:03:25.774Z,1018.55
2019-01-05T05:04:24.306Z,1018.53
2019-01-05T05:05:23.179Z,1018.52
2019-01-05T05:06:21.731Z,1018.49
2019-01-05T05:07:20.272Z,1018.47
2019-01-05T05:08:19.440Z,1018.49
2019-01-05T05:09:18.072Z,1018.51
2019-01-05T05:10:16.752Z,1018.52
2019-01-05T05:11:15.525Z,1018.46
2019-01-05T05:12:14.139Z,1018.45
2019-01-05T05:13:12.769Z,1018.43
2019-01-05T05:14:11.351Z,1018.41
2019-01-05T05:15:09.888Z,1018.42
2019-01-05T05:16:08.397Z,1018.36
2019-01-05T05:17:06.918Z,1018.37
2019-01-05T05:18:05.451Z,1018.33
2019-01-05T05:19:04.013Z,1018.36
2019-01-05T05:20:02.539Z,1018.35
2019-01-05T05:21:01.106Z,1018.31
2019-01-05T05:21:59.645Z,1018.33
2019-01-05T05:22:58.204Z,1018.3
2019-01-05T05:23:57.001Z,1018.26
2019-01-05T05:24:55.538Z,1018.24
2019-01-05T05:25:54.117Z,1018.25
2019-01-05T05:26:53.007Z,1018.3
2019-01-05T05:29:33.224Z,1018.3
2019-01-05T05:30:31.747Z,1018.32
2019-01-05T05:31:30.356Z,1018.3
2019-01-05T05:32:29.079Z,1018.27
2019-01-05T05:33:27.625Z,1018.25
2019-01-05T05:34:26.164Z,1018.28
2019-01-05T05:35:25.093Z,1018.26
2019-01-05T05:36:23.651Z,1018.21
2019-01-05T05:37:22.184Z,1018.22
2019-01-05T05:41:11.626Z,1018.27
2019-01-05T05:42:10.173Z,1018.19
2019-01-05T05:43:08.849Z,1018.26
2019-01-05T05:44:07.499Z,1018.23
2019-01-05T05:45:05.990Z,1018.27
2019-01-05T05:46:04.813Z,1018.2
2019-01-05T05:47:03.409Z,1018.18
2019-01-05T05:48:01.962Z,1018.2
2019-01-05T05:49:00.491Z,1018.21
2019-01-05T05:49:59.218Z,1018.24
2019-01-05T05:50:57.764Z,1018.17
2019-01-05T05:51:56.425Z,1018.17
2019-01-05T05:52:55.181Z,1018.19
2019-01-05T05:53:54.491Z,1018.14
2019-01-05T05:54:53.389Z,1018.14
2019-01-05T05:55:51.976Z,1018.18
2019-01-05T05:56:50.531Z,1018.11
2019-01-05T05:57:49.057Z,1018.15
2019-01-05T05:58:47.593Z,1018.1
2019-01-05T05:59:46.275Z,1018.1
2019-01-05T06:00:45.098Z,1018.11
2019-01-05T06:01:43.636Z,1018.12
2019-01-05T06:02:42.186Z,1018.04
2019-01-05T06:03:41.158Z,1018.12
2019-01-05T06:04:39.733Z,1018.11
2019-01-05T06:05:38.276Z,1018.1
2019-01-05T06:06:37.126Z,1018.11
2019-01-05T06:07:35.671Z,1018.13
2019-01-05T06:08:34.212Z,1018.15
2019-01-05T06:09:33.123Z,1018.16
2019-01-05T06:10:31.680Z,1018.1
2019-01-05T06:11:30.261Z,1018.18
2019-01-05T06:12:28.817Z,1018.18
2019-01-05T06:13:27.311Z,1018.17
2019-01-05T06:14:25.904Z,1018.17
2019-01-05T06:15:24.468Z,1018.14
2019-01-05T06:16:23.275Z,1018.13
2019-01-05T06:17:22.677Z,1018.14
2019-01-05T06:18:21.316Z,1018.11
2019-01-05T06:19:19.875Z,1018.15
2019-01-05T06:20:18.664Z,1018.12
2019-01-05T06:21:17.247Z,1018.08
2019-01-05T06:22:15.822Z,1018.11
2019-01-05T06:23:14.436Z,1018.11
2019-01-05T06:24:12.970Z,1018.12
2019-01-05T06:25:11.512Z,1018.11
2019-01-05T06:27:51.784Z,1018.06
2019-01-05T06:28:50.402Z,1018.01
2019-01-05T06:29:49.336Z,1018.02
2019-01-05T06:30:47.881Z,1018.02
2019-01-05T06:31:46.492Z,1018.02
2019-01-05T06:32:45.118Z,1018.02
2019-01-05T06:33:43.971Z,1018.03
2019-01-05T06:34:42.641Z,1018.03
2019-01-05T06:35:41.279Z,1017.99
2019-01-05T06:36:39.784Z,1018
2019-01-05T06:37:38.440Z,1017.99
2019-01-05T06:38:37.080Z,1018
2019-01-05T06:39:35.754Z,1017.94
2019-01-05T06:40:34.251Z,1017.96
2019-01-05T06:41:33.107Z,1017.98
2019-01-05T06:42:32.198Z,1018.01
2019-01-05T06:43:30.941Z,1017.98
2019-01-05T06:44:29.614Z,1017.95
2019-01-05T06:45:28.164Z,1017.91
2019-01-05T06:46:27.129Z,1017.9
2019-01-05T06:47:25.677Z,1017.9
2019-01-05T06:48:24.186Z,1017.89
2019-01-05T06:49:22.732Z,1017.92
2019-01-05T06:50:21.281Z,1017.92
2019-01-05T06:51:19.901Z,1017.86
2019-01-05T06:52:18.474Z,1017.87
2019-01-05T06:53:17.303Z,1017.9
2019-01-05T06:55:54.833Z,1017.87
2019-01-05T06:56:53.422Z,1017.83
2019-01-05T06:57:51.949Z,1017.82
2019-01-05T06:58:50.892Z,1017.81
2019-01-05T06:59:50.900Z,1017.81
2019-01-05T07:00:49.479Z,1017.82
2019-01-05T07:01:48.075Z,1017.83
2019-01-05T07:02:46.944Z,1017.79
2019-01-05T07:03:45.612Z,1017.78
2019-01-05T07:04:44.281Z,1017.79
2019-01-05T07:05:42.902Z,1017.8
2019-01-05T07:06:41.432Z,1017.76
2019-01-05T07:07:40.038Z,1017.75
2019-01-05T07:08:38.587Z,1017.77
2019-01-05T07:09:37.271Z,1017.79
2019-01-05T07:10:35.857Z,1017.78
2019-01-05T07:11:34.549Z,1017.86
2019-01-05T07:12:33.357Z,1017.83
2019-01-05T07:13:31.906Z,1017.84
2019-01-05T07:14:30.483Z,1017.8
2019-01-05T07:17:11.037Z,1017.73
2019-01-05T07:18:09.593Z,1017.75
2019-01-05T07:20:49.841Z,1017.75
2019-01-05T07:21:48.474Z,1017.75
2019-01-05T07:22:47.109Z,1017.7
2019-01-05T07:23:45.632Z,1017.76
2019-01-05T07:24:44.166Z,1017.72
2019-01-05T07:25:43.031Z,1017.65
2019-01-05T07:26:41.620Z,1017.73
2019-01-05T07:27:40.163Z,1017.75
2019-01-05T07:28:39.037Z,1017.73
2019-01-05T07:29:37.593Z,1017.74
2019-01-05T07:30:36.188Z,1017.73
2019-01-05T07:31:34.729Z,1017.79
2019-01-05T07:32:33.374Z,1017.66
2019-01-05T07:33:31.927Z,1017.64
2019-01-05T07:34:30.654Z,1017.65
2019-01-05T07:35:29.697Z,1017.72
2019-01-05T07:36:28.212Z,1017.68
2019-01-05T07:37:26.765Z,1017.73
2019-01-05T07:38:25.284Z,1017.67
2019-01-05T07:39:23.808Z,1017.67
2019-01-05T07:40:22.322Z,1017.57
2019-01-05T07:41:20.897Z,1017.6
2019-01-05T07:42:19.400Z,1017.64
2019-01-05T07:43:18.018Z,1017.6
2019-01-05T07:46:10.405Z,1017.69
2019-01-05T07:47:08.942Z,1017.69
2019-01-05T07:48:07.516Z,1017.69
2019-01-05T07:49:06.058Z,1017.59
2019-01-05T07:50:04.616Z,1017.65
2019-01-05T07:51:03.380Z,1017.63
2019-01-05T07:52:02.063Z,1017.61
2019-01-05T07:54:42.447Z,1017.65
2019-01-05T07:55:40.967Z,1017.63
2019-01-05T07:58:03.748Z,1017.6
2019-01-05T07:59:02.296Z,1017.62
2019-01-05T08:00:00.926Z,1017.66
2019-01-05T08:02:16.949Z,1017.64
2019-01-05T08:03:15.567Z,1017.63
2019-01-05T08:04:14.866Z,1017.63
2019-01-05T08:05:12.657Z,1017.61
2019-01-05T08:06:11.515Z,1017.55
2019-01-05T08:07:10.036Z,1017.57
2019-01-05T08:08:08.884Z,1017.54
2019-01-05T08:09:07.535Z,1017.58
2019-01-05T08:10:06.081Z,1017.57
2019-01-05T08:11:04.784Z,1017.54
2019-01-05T08:12:03.528Z,1017.61
2019-01-05T08:13:02.067Z,1017.62
2019-01-05T08:14:01.110Z,1017.61
2019-01-05T08:14:59.657Z,1017.61
2019-01-05T08:15:58.567Z,1017.57
2019-01-05T08:18:43.189Z,1017.54
2019-01-05T08:19:41.721Z,1017.53
2019-01-05T08:20:40.247Z,1017.59
2019-01-05T08:23:24.492Z,1017.62
2019-01-05T08:27:49.473Z,1017.55
2019-01-05T08:28:48.092Z,1017.55
2019-01-05T08:30:45.540Z,1017.59
2019-01-05T08:31:44.082Z,1017.52
2019-01-05T08:32:42.689Z,1017.56
2019-01-05T08:33:41.705Z,1017.56
2019-01-05T08:34:40.471Z,1017.54
2019-01-05T08:35:39.203Z,1017.56
2019-01-05T08:38:19.242Z,1017.48
2019-01-05T08:39:17.773Z,1017.54
2019-01-05T08:40:16.296Z,1017.51
2019-01-05T08:41:15.277Z,1017.48
2019-01-05T08:42:13.974Z,1017.51
2019-01-05T08:43:12.718Z,1017.52
2019-01-05T08:45:09.798Z,1017.5
2019-01-05T08:46:09.189Z,1017.51
2019-01-05T08:47:07.723Z,1017.49
2019-01-05T08:48:06.780Z,1017.53
2019-01-05T08:49:05.461Z,1017.58
2019-01-05T08:50:03.987Z,1017.49
2019-01-05T08:52:44.123Z,1017.52
2019-01-05T08:53:42.793Z,1017.54
2019-01-05T08:54:41.694Z,1017.54
2019-01-05T08:55:40.216Z,1017.5
2019-01-05T08:56:38.898Z,1017.41
2019-01-05T08:57:37.612Z,1017.43
2019-01-05T08:58:36.288Z,1017.44
2019-01-05T08:59:35.074Z,1017.41
2019-01-05T09:00:33.650Z,1017.43
2019-01-05T09:01:32.212Z,1017.4
2019-01-05T09:02:30.935Z,1017.39
2019-01-05T09:03:29.722Z,1017.35
2019-01-05T09:04:28.415Z,1017.32
2019-01-05T09:05:27.049Z,1017.42
2019-01-05T09:06:25.622Z,1017.38
2019-01-05T09:07:24.242Z,1017.38
2019-01-05T09:08:23.614Z,1017.41
2019-01-05T09:09:22.205Z,1017.49
2019-01-05T09:10:21.041Z,1017.47
2019-01-05T09:11:19.616Z,1017.37
2019-01-05T09:12:18.159Z,1017.39
2019-01-05T09:13:17.064Z,1017.34
2019-01-05T09:14:15.633Z,1017.33
2019-01-05T09:15:14.176Z,1017.37
2019-01-05T09:16:12.878Z,1017.32
2019-01-05T09:17:12.076Z,1017.4
2019-01-05T09:18:10.764Z,1017.35
2019-01-05T09:19:09.345Z,1017.35
2019-01-05T09:20:08.107Z,1017.36
2019-01-05T09:21:06.869Z,1017.35
2019-01-05T09:22:05.460Z,1017.37
2019-01-05T09:23:03.986Z,1017.42
2019-01-05T09:24:02.655Z,1017.38
2019-01-05T09:25:01.408Z,1017.42
2019-01-05T09:25:59.843Z,1017.37
2019-01-05T09:26:58.411Z,1017.35
2019-01-05T09:27:56.960Z,1017.38
2019-01-05T09:28:55.503Z,1017.38
2019-01-05T09:29:54.050Z,1017.39
2019-01-05T09:30:52.888Z,1017.33
2019-01-05T09:31:51.588Z,1017.32
2019-01-05T09:32:50.122Z,1017.33
2019-01-05T09:33:48.855Z,1017.29
2019-01-05T09:34:47.523Z,1017.32
2019-01-05T09:35:46.306Z,1017.39
2019-01-05T09:36:45.040Z,1017.37
2019-01-05T09:37:43.618Z,1017.35
2019-01-05T09:38:42.161Z,1017.47
2019-01-05T09:39:40.950Z,1017.33
2019-01-05T09:40:39.587Z,1017.35
2019-01-05T09:41:38.171Z,1017.35
2019-01-05T09:42:36.696Z,1017.34
2019-01-05T09:43:35.693Z,1017.37
2019-01-05T09:44:34.145Z,1017.4
2019-01-05T09:45:33.016Z,1017.34
2019-01-05T09:46:31.601Z,1017.32
2019-01-05T09:47:30.177Z,1017.32
2019-01-05T09:48:28.753Z,1017.29
2019-01-05T09:49:27.916Z,1017.26
2019-01-05T09:50:26.646Z,1017.36
2019-01-05T09:51:25.295Z,1017.33
2019-01-05T09:52:23.863Z,1017.28
2019-01-05T09:53:22.656Z,1017.23
2019-01-05T09:54:21.485Z,1017.28
2019-01-05T09:55:20.028Z,1017.27
2019-01-05T09:56:19.083Z,1017.27
2019-01-05T09:57:17.630Z,1017.38
2019-01-05T09:58:16.210Z,1017.4
2019-01-05T09:59:15.507Z,1017.3
2019-01-05T10:00:14.059Z,1017.26
2019-01-05T10:01:12.800Z,1017.24
2019-01-05T10:02:11.444Z,1017.24
2019-01-05T10:03:11.283Z,1017.25
2019-01-05T10:04:08.791Z,1017.29
2019-01-05T10:05:07.341Z,1017.31
2019-01-05T10:06:05.951Z,1017.35
2019-01-05T10:07:04.559Z,1017.4
2019-01-05T10:08:03.409Z,1017.43
2019-01-05T10:09:01.987Z,1017.43
2019-01-05T10:10:00.929Z,1017.38
2019-01-05T10:10:59.469Z,1017.49
2019-01-05T10:11:58.011Z,1017.43
2019-01-05T10:12:56.563Z,1017.45
2019-01-05T10:13:55.271Z,1017.48
2019-01-05T10:14:54.120Z,1017.45
2019-01-05T10:15:52.953Z,1017.45
2019-01-05T10:16:51.483Z,1017.44
2019-01-05T10:17:50.125Z,1017.49
2019-01-05T10:18:49.054Z,1017.48
2019-01-05T10:19:47.611Z,1017.36
2019-01-05T10:20:46.153Z,1017.42
2019-01-05T10:21:45.123Z,1017.35
2019-01-05T10:22:43.683Z,1017.37
2019-01-05T10:23:42.245Z,1017.31
2019-01-05T10:24:40.990Z,1017.29
2019-01-05T10:25:39.519Z,1017.34
2019-01-05T10:26:38.138Z,1017.31
2019-01-05T10:27:37.119Z,1017.35
2019-01-05T10:28:35.650Z,1017.34
2019-01-05T10:29:34.188Z,1017.3
2019-01-05T10:30:32.698Z,1017.35
2019-01-05T10:31:31.277Z,1017.28
2019-01-05T10:32:29.824Z,1017.34
2019-01-05T10:33:28.381Z,1017.35
2019-01-05T10:34:26.994Z,1017.35
2019-01-05T10:35:25.533Z,1017.4
2019-01-05T10:36:24.046Z,1017.38
2019-01-05T10:37:22.825Z,1017.38
2019-01-05T10:38:21.702Z,1017.42
2019-01-05T10:39:20.309Z,1017.42
2019-01-05T10:40:18.866Z,1017.46
2019-01-05T10:41:17.445Z,1017.43
2019-01-05T10:42:15.971Z,1017.36
2019-01-05T10:43:14.468Z,1017.33
2019-01-05T10:44:13.021Z,1017.34
2019-01-05T10:45:11.576Z,1017.31
2019-01-05T10:46:10.981Z,1017.34
2019-01-05T10:48:51.162Z,1017.34
2019-01-05T10:49:49.679Z,1017.3
2019-01-05T10:50:48.216Z,1017.28
2019-01-05T10:51:47.044Z,1017.25
2019-01-05T10:52:45.650Z,1017.29
2019-01-05T10:53:44.182Z,1017.26
2019-01-05T10:54:43.050Z,1017.32
2019-01-05T10:55:41.611Z,1017.31
2019-01-05T10:56:40.130Z,1017.24
2019-01-05T10:59:20.793Z,1017.31
2019-01-05T11:00:19.338Z,1017.25
2019-01-05T11:01:17.916Z,1017.33
2019-01-05T11:02:16.538Z,1017.24
2019-01-05T11:03:15.171Z,1017.27
2019-01-05T11:04:13.725Z,1017.22
2019-01-05T11:05:12.607Z,1017.27
2019-01-05T11:06:12.369Z,1017.25
2019-01-05T11:07:11.017Z,1017.17
2019-01-05T11:08:09.543Z,1017.19
2019-01-05T11:09:08.114Z,1017.23
2019-01-05T11:10:06.728Z,1017.11
2019-01-05T11:11:05.416Z,1017.15
2019-01-05T11:12:03.941Z,1017.1
2019-01-05T11:13:02.690Z,1017.09
2019-01-05T11:14:01.638Z,1017.13
2019-01-05T11:15:00.187Z,1017.08
2019-01-05T11:18:00.407Z,1017.03
2019-01-05T11:18:59.902Z,1017.08
2019-01-05T11:21:39.271Z,1017.06
2019-01-05T11:22:37.806Z,1016.95
2019-01-05T11:23:36.376Z,1016.99
2019-01-05T11:24:35.179Z,1017
2019-01-05T11:25:33.731Z,1017
2019-01-05T11:26:32.307Z,1017
2019-01-05T11:27:31.110Z,1016.96
2019-01-05T11:28:29.736Z,1016.97
2019-01-05T11:29:29.141Z,1016.91
2019-01-05T11:38:51.407Z,1016.83
2019-01-05T11:41:32.142Z,1016.84
2019-01-05T11:42:30.081Z,1016.81
2019-01-05T11:43:28.839Z,1016.76
2019-01-05T11:44:27.430Z,1016.77
2019-01-05T11:45:26.958Z,1016.79
2019-01-05T11:46:25.486Z,1016.75
2019-01-05T11:47:24.842Z,1016.68
2019-01-05T11:48:23.378Z,1016.69
2019-01-05T11:49:21.922Z,1016.72
2019-01-05T11:50:20.492Z,1016.68
2019-01-05T11:51:19.091Z,1016.69
2019-01-05T11:52:17.600Z,1016.7
2019-01-05T11:53:16.183Z,1016.6
2019-01-05T11:54:15.248Z,1016.66
2019-01-05T11:55:13.864Z,1016.66
2019-01-05T11:56:12.529Z,1016.66
2019-01-05T11:57:11.075Z,1016.65
2019-01-05T11:58:09.649Z,1016.63
2019-01-05T11:59:08.217Z,1016.67
2019-01-05T12:00:06.730Z,1016.65
2019-01-05T12:01:06.231Z,1016.61
2019-01-05T12:02:03.800Z,1016.63
2019-01-05T12:03:02.412Z,1016.6
2019-01-05T12:04:01.314Z,1016.61
2019-01-05T12:04:59.853Z,1016.69
2019-01-05T12:05:58.403Z,1016.65
2019-01-05T12:06:57.254Z,1016.67
2019-01-05T12:07:55.795Z,1016.71
2019-01-05T12:08:54.364Z,1016.68
2019-01-05T12:09:52.909Z,1016.73
2019-01-05T12:10:51.439Z,1016.7
2019-01-05T12:11:49.993Z,1016.72
2019-01-05T12:12:48.567Z,1016.72
2019-01-05T12:13:47.440Z,1016.71
2019-01-05T12:14:45.942Z,1016.68
2019-01-05T12:15:44.824Z,1016.71
2019-01-05T12:16:43.379Z,1016.77
2019-01-05T12:17:42.451Z,1016.73
2019-01-05T12:18:40.750Z,1016.74
2019-01-05T12:19:39.550Z,1016.77
2019-01-05T12:20:38.092Z,1016.8
2019-01-05T12:21:36.601Z,1016.83
2019-01-05T12:22:35.359Z,1016.77
2019-01-05T12:58:16.776Z,1016.52
2019-01-05T12:59:15.569Z,1016.55
2019-01-05T13:00:14.137Z,1016.53
2019-01-05T13:01:12.814Z,1016.55
2019-01-05T13:02:11.720Z,1016.53
2019-01-05T13:03:10.269Z,1016.53
2019-01-05T13:04:10.846Z,1016.57
2019-01-05T13:05:11.608Z,1016.55
2019-01-05T13:06:11.538Z,1016.45
2019-01-05T13:07:09.484Z,1016.46
2019-01-05T13:08:07.519Z,1016.46
2019-01-05T13:13:37.866Z,1016.5
2019-01-05T13:17:02.996Z,1016.49
2019-01-05T13:18:01.777Z,1016.46
2019-01-05T13:19:01.498Z,1016.45
2019-01-05T13:21:11.780Z,1016.5
2019-01-05T13:25:01.261Z,1016.51
2019-01-05T13:28:40.459Z,1016.47
2019-01-05T13:37:42.729Z,1016.45
2019-01-05T13:38:43.372Z,1016.42